sensor_id;sensor_type;location;lat;lon;timestamp;P1;durP1;ratioP1;P2;durP2;ratioP2
37431;SDS011;23292;51.300;6.252;2024-01-15T00:00:23;54.97;;;24.23;;
37431;SDS011;23292;51.300;6.252;2024-01-15T00:02:50;56.30;;;25.08;;
37431;SDS011;23292;51.300;6.252;2024-01-15T00:05:16;57.95;;;24.35;;
37431;SDS011;23292;51.300;6.252;2024-01-15T00:07:43;60.45;;;24.77;;
37431;SDS011;23292;51.300;6.252;2024-01-15T00:10:10;64.03;;;25.35;;
37431;SDS011;23292;51.300;6.252;2024-01-15T00:12:37;64.82;;;26.80;;
37431;SDS011;23292;51.300;6.252;2024-01-15T00:15:04;58.92;;;24.50;;
37431;SDS011;23292;51.300;6.252;2024-01-15T00:17:31;65.13;;;25.00;;
37431;SDS011;23292;51.300;6.252;2024-01-15T00:19:59;61.63;;;24.77;;
37431;SDS011;23292;51.300;6.252;2024-01-15T00:22:26;63.20;;;24.52;;
37431;SDS011;23292;51.300;6.252;2024-01-15T00:24:56;58.35;;;26.38;;
37431;SDS011;23292;51.300;6.252;2024-01-15T00:27:24;54.92;;;23.98;;
37431;SDS011;23292;51.300;6.252;2024-01-15T00:29:50;62.15;;;25.27;;
37431;SDS011;23292;51.300;6.252;2024-01-15T00:32:18;62.40;;;25.75;;
37431;SDS011;23292;51.300;6.252;2024-01-15T00:34:46;63.67;;;24.92;;
37431;SDS011;23292;51.300;6.252;2024-01-15T00:37:13;65.05;;;24.27;;
37431;SDS011;23292;51.300;6.252;2024-01-15T00:39:40;68.82;;;25.00;;
37431;SDS011;23292;51.300;6.252;2024-01-15T00:42:06;65.15;;;26.60;;
37431;SDS011;23292;51.300;6.252;2024-01-15T00:44:33;66.47;;;26.08;;
37431;SDS011;23292;51.300;6.252;2024-01-15T00:47:00;54.55;;;23.63;;
37431;SDS011;23292;51.300;6.252;2024-01-15T00:49:28;64.25;;;24.17;;
37431;SDS011;23292;51.300;6.252;2024-01-15T00:51:55;59.78;;;25.15;;
37431;SDS011;23292;51.300;6.252;2024-01-15T00:54:22;61.38;;;23.45;;
37431;SDS011;23292;51.300;6.252;2024-01-15T00:56:49;65.38;;;24.33;;
37431;SDS011;23292;51.300;6.252;2024-01-15T00:59:16;64.03;;;25.83;;
37431;SDS011;23292;51.300;6.252;2024-01-15T01:01:43;54.58;;;22.83;;
37431;SDS011;23292;51.300;6.252;2024-01-15T01:04:10;71.18;;;25.48;;
37431;SDS011;23292;51.300;6.252;2024-01-15T01:06:38;61.08;;;24.17;;
37431;SDS011;23292;51.300;6.252;2024-01-15T01:09:05;55.22;;;24.00;;
37431;SDS011;23292;51.300;6.252;2024-01-15T01:11:32;58.17;;;23.65;;
37431;SDS011;23292;51.300;6.252;2024-01-15T01:13:58;65.88;;;23.45;;
37431;SDS011;23292;51.300;6.252;2024-01-15T01:16:26;61.53;;;24.10;;
37431;SDS011;23292;51.300;6.252;2024-01-15T01:18:53;59.47;;;22.50;;
37431;SDS011;23292;51.300;6.252;2024-01-15T01:21:20;66.38;;;24.27;;
37431;SDS011;23292;51.300;6.252;2024-01-15T01:23:47;54.83;;;22.83;;
37431;SDS011;23292;51.300;6.252;2024-01-15T01:26:17;52.22;;;23.73;;
37431;SDS011;23292;51.300;6.252;2024-01-15T01:28:44;49.17;;;22.23;;
37431;SDS011;23292;51.300;6.252;2024-01-15T01:31:11;49.78;;;22.15;;
37431;SDS011;23292;51.300;6.252;2024-01-15T01:33:41;54.40;;;22.33;;
37431;SDS011;23292;51.300;6.252;2024-01-15T01:36:08;52.67;;;20.88;;
37431;SDS011;23292;51.300;6.252;2024-01-15T01:38:36;47.42;;;20.88;;
37431;SDS011;23292;51.300;6.252;2024-01-15T01:41:04;52.70;;;20.80;;
37431;SDS011;23292;51.300;6.252;2024-01-15T01:43:31;46.08;;;19.27;;
37431;SDS011;23292;51.300;6.252;2024-01-15T01:46:00;40.22;;;17.50;;
37431;SDS011;23292;51.300;6.252;2024-01-15T01:48:27;42.88;;;18.45;;
37431;SDS011;23292;51.300;6.252;2024-01-15T01:50:59;47.80;;;19.08;;
37431;SDS011;23292;51.300;6.252;2024-01-15T01:53:29;43.22;;;19.63;;
37431;SDS011;23292;51.300;6.252;2024-01-15T01:55:58;38.55;;;17.77;;
37431;SDS011;23292;51.300;6.252;2024-01-15T01:58:25;51.60;;;17.80;;
37431;SDS011;23292;51.300;6.252;2024-01-15T02:00:52;45.13;;;19.08;;
37431;SDS011;23292;51.300;6.252;2024-01-15T02:03:20;43.88;;;19.42;;
37431;SDS011;23292;51.300;6.252;2024-01-15T02:05:47;40.88;;;18.27;;
37431;SDS011;23292;51.300;6.252;2024-01-15T02:08:15;37.33;;;17.30;;
37431;SDS011;23292;51.300;6.252;2024-01-15T02:10:43;41.20;;;16.75;;
37431;SDS011;23292;51.300;6.252;2024-01-15T02:13:10;41.13;;;17.63;;
37431;SDS011;23292;51.300;6.252;2024-01-15T02:15:37;41.50;;;18.70;;
37431;SDS011;23292;51.300;6.252;2024-01-15T02:18:04;45.30;;;19.30;;
37431;SDS011;23292;51.300;6.252;2024-01-15T02:20:34;46.42;;;19.52;;
37431;SDS011;23292;51.300;6.252;2024-01-15T02:25:39;39.45;;;18.73;;
37431;SDS011;23292;51.300;6.252;2024-01-15T02:28:11;42.00;;;18.98;;
37431;SDS011;23292;51.300;6.252;2024-01-15T02:30:42;42.47;;;17.55;;
37431;SDS011;23292;51.300;6.252;2024-01-15T02:33:10;42.92;;;18.40;;
37431;SDS011;23292;51.300;6.252;2024-01-15T02:35:37;43.13;;;19.17;;
37431;SDS011;23292;51.300;6.252;2024-01-15T02:38:05;43.85;;;19.60;;
37431;SDS011;23292;51.300;6.252;2024-01-15T02:40:32;44.63;;;19.52;;
37431;SDS011;23292;51.300;6.252;2024-01-15T02:42:59;43.35;;;17.98;;
37431;SDS011;23292;51.300;6.252;2024-01-15T02:45:26;43.28;;;19.17;;
37431;SDS011;23292;51.300;6.252;2024-01-15T02:47:53;37.08;;;17.35;;
37431;SDS011;23292;51.300;6.252;2024-01-15T02:50:20;35.63;;;18.20;;
37431;SDS011;23292;51.300;6.252;2024-01-15T02:52:47;36.58;;;16.58;;
37431;SDS011;23292;51.300;6.252;2024-01-15T02:55:14;36.80;;;17.25;;
37431;SDS011;23292;51.300;6.252;2024-01-15T02:57:41;33.33;;;15.75;;
37431;SDS011;23292;51.300;6.252;2024-01-15T03:00:08;33.50;;;17.25;;
37431;SDS011;23292;51.300;6.252;2024-01-15T03:02:36;33.10;;;15.90;;
37431;SDS011;23292;51.300;6.252;2024-01-15T03:05:12;34.78;;;16.83;;
37431;SDS011;23292;51.300;6.252;2024-01-15T03:07:38;34.38;;;17.73;;
37431;SDS011;23292;51.300;6.252;2024-01-15T03:10:05;34.17;;;16.23;;
37431;SDS011;23292;51.300;6.252;2024-01-15T03:12:33;34.15;;;17.67;;
37431;SDS011;23292;51.300;6.252;2024-01-15T03:15:00;42.00;;;18.55;;
37431;SDS011;23292;51.300;6.252;2024-01-15T03:17:27;41.28;;;17.83;;
37431;SDS011;23292;51.300;6.252;2024-01-15T03:19:53;33.83;;;17.52;;
37431;SDS011;23292;51.300;6.252;2024-01-15T03:22:21;33.97;;;16.88;;
37431;SDS011;23292;51.300;6.252;2024-01-15T03:24:48;37.47;;;16.70;;
37431;SDS011;23292;51.300;6.252;2024-01-15T03:27:15;34.83;;;16.92;;
37431;SDS011;23292;51.300;6.252;2024-01-15T03:29:42;34.47;;;16.25;;
37431;SDS011;23292;51.300;6.252;2024-01-15T03:32:09;38.67;;;15.95;;
37431;SDS011;23292;51.300;6.252;2024-01-15T03:34:36;32.65;;;16.88;;
37431;SDS011;23292;51.300;6.252;2024-01-15T03:37:03;32.20;;;15.15;;
37431;SDS011;23292;51.300;6.252;2024-01-15T03:39:30;26.92;;;14.15;;
37431;SDS011;23292;51.300;6.252;2024-01-15T03:41:57;29.48;;;14.30;;
37431;SDS011;23292;51.300;6.252;2024-01-15T03:44:24;31.50;;;15.27;;
37431;SDS011;23292;51.300;6.252;2024-01-15T03:46:51;36.95;;;16.60;;
37431;SDS011;23292;51.300;6.252;2024-01-15T03:49:17;35.60;;;15.82;;
37431;SDS011;23292;51.300;6.252;2024-01-15T03:51:44;35.08;;;15.82;;
37431;SDS011;23292;51.300;6.252;2024-01-15T03:54:11;27.67;;;14.68;;
37431;SDS011;23292;51.300;6.252;2024-01-15T03:56:38;30.52;;;15.05;;
37431;SDS011;23292;51.300;6.252;2024-01-15T03:59:05;29.95;;;14.13;;
37431;SDS011;23292;51.300;6.252;2024-01-15T04:01:33;34.88;;;16.52;;
37431;SDS011;23292;51.300;6.252;2024-01-15T04:03:59;30.60;;;14.15;;
37431;SDS011;23292;51.300;6.252;2024-01-15T04:06:26;33.00;;;13.70;;
37431;SDS011;23292;51.300;6.252;2024-01-15T04:08:53;31.85;;;14.50;;
37431;SDS011;23292;51.300;6.252;2024-01-15T04:11:20;37.03;;;16.38;;
37431;SDS011;23292;51.300;6.252;2024-01-15T04:13:48;31.70;;;15.70;;
37431;SDS011;23292;51.300;6.252;2024-01-15T04:16:15;30.13;;;14.00;;
37431;SDS011;23292;51.300;6.252;2024-01-15T04:18:42;34.83;;;14.30;;
37431;SDS011;23292;51.300;6.252;2024-01-15T04:21:09;32.08;;;15.27;;
37431;SDS011;23292;51.300;6.252;2024-01-15T04:23:36;29.95;;;13.63;;
37431;SDS011;23292;51.300;6.252;2024-01-15T04:26:03;26.70;;;13.80;;
37431;SDS011;23292;51.300;6.252;2024-01-15T04:28:29;28.13;;;14.32;;
37431;SDS011;23292;51.300;6.252;2024-01-15T04:30:56;30.52;;;13.85;;
37431;SDS011;23292;51.300;6.252;2024-01-15T04:33:23;34.28;;;14.35;;
37431;SDS011;23292;51.300;6.252;2024-01-15T04:35:51;30.63;;;14.27;;
37431;SDS011;23292;51.300;6.252;2024-01-15T04:38:17;25.10;;;13.82;;
37431;SDS011;23292;51.300;6.252;2024-01-15T04:40:44;33.25;;;14.68;;
37431;SDS011;23292;51.300;6.252;2024-01-15T04:43:11;26.77;;;13.23;;
37431;SDS011;23292;51.300;6.252;2024-01-15T04:45:38;30.38;;;13.68;;
37431;SDS011;23292;51.300;6.252;2024-01-15T04:48:05;30.45;;;13.75;;
37431;SDS011;23292;51.300;6.252;2024-01-15T04:50:32;32.47;;;13.52;;
37431;SDS011;23292;51.300;6.252;2024-01-15T04:52:59;28.92;;;13.88;;
37431;SDS011;23292;51.300;6.252;2024-01-15T04:55:26;31.00;;;13.90;;
37431;SDS011;23292;51.300;6.252;2024-01-15T04:57:53;27.92;;;12.65;;
37431;SDS011;23292;51.300;6.252;2024-01-15T05:00:19;26.88;;;12.90;;
37431;SDS011;23292;51.300;6.252;2024-01-15T05:02:46;25.70;;;11.50;;
37431;SDS011;23292;51.300;6.252;2024-01-15T05:05:13;27.02;;;11.50;;
37431;SDS011;23292;51.300;6.252;2024-01-15T05:07:40;22.48;;;11.13;;
37431;SDS011;23292;51.300;6.252;2024-01-15T05:10:07;27.15;;;10.75;;
37431;SDS011;23292;51.300;6.252;2024-01-15T05:12:34;28.35;;;10.82;;
37431;SDS011;23292;51.300;6.252;2024-01-15T05:15:01;20.88;;;9.65;;
37431;SDS011;23292;51.300;6.252;2024-01-15T05:17:28;23.55;;;10.02;;
37431;SDS011;23292;51.300;6.252;2024-01-15T05:19:55;27.60;;;10.32;;
37431;SDS011;23292;51.300;6.252;2024-01-15T05:22:22;19.70;;;9.77;;
37431;SDS011;23292;51.300;6.252;2024-01-15T05:24:51;23.48;;;10.38;;
37431;SDS011;23292;51.300;6.252;2024-01-15T05:27:18;26.13;;;10.82;;
37431;SDS011;23292;51.300;6.252;2024-01-15T05:29:45;21.38;;;10.95;;
37431;SDS011;23292;51.300;6.252;2024-01-15T05:32:12;22.80;;;10.85;;
37431;SDS011;23292;51.300;6.252;2024-01-15T05:34:39;20.67;;;10.05;;
37431;SDS011;23292;51.300;6.252;2024-01-15T05:37:06;21.10;;;8.80;;
37431;SDS011;23292;51.300;6.252;2024-01-15T05:39:32;17.58;;;8.57;;
37431;SDS011;23292;51.300;6.252;2024-01-15T05:41:59;21.33;;;10.02;;
37431;SDS011;23292;51.300;6.252;2024-01-15T05:44:26;23.00;;;9.05;;
37431;SDS011;23292;51.300;6.252;2024-01-15T05:46:53;15.43;;;8.65;;
37431;SDS011;23292;51.300;6.252;2024-01-15T05:49:21;17.83;;;8.98;;
37431;SDS011;23292;51.300;6.252;2024-01-15T05:51:48;17.30;;;8.80;;
37431;SDS011;23292;51.300;6.252;2024-01-15T05:54:15;14.48;;;7.70;;
37431;SDS011;23292;51.300;6.252;2024-01-15T05:56:43;17.85;;;7.88;;
37431;SDS011;23292;51.300;6.252;2024-01-15T05:59:10;15.63;;;7.32;;
37431;SDS011;23292;51.300;6.252;2024-01-15T06:01:41;13.93;;;6.83;;
37431;SDS011;23292;51.300;6.252;2024-01-15T06:04:08;16.65;;;6.45;;
37431;SDS011;23292;51.300;6.252;2024-01-15T06:06:34;16.17;;;7.53;;
37431;SDS011;23292;51.300;6.252;2024-01-15T06:09:02;12.98;;;6.72;;
37431;SDS011;23292;51.300;6.252;2024-01-15T06:11:32;15.15;;;7.03;;
37431;SDS011;23292;51.300;6.252;2024-01-15T06:13:59;15.35;;;6.75;;
37431;SDS011;23292;51.300;6.252;2024-01-15T06:16:28;20.60;;;8.30;;
37431;SDS011;23292;51.300;6.252;2024-01-15T06:18:55;20.13;;;9.52;;
37431;SDS011;23292;51.300;6.252;2024-01-15T06:21:22;24.08;;;10.38;;
37431;SDS011;23292;51.300;6.252;2024-01-15T06:23:50;21.20;;;11.70;;
37431;SDS011;23292;51.300;6.252;2024-01-15T06:26:17;23.27;;;11.48;;
37431;SDS011;23292;51.300;6.252;2024-01-15T06:28:44;29.90;;;13.63;;
37431;SDS011;23292;51.300;6.252;2024-01-15T06:31:11;24.05;;;13.38;;
37431;SDS011;23292;51.300;6.252;2024-01-15T06:33:38;27.88;;;14.57;;
37431;SDS011;23292;51.300;6.252;2024-01-15T06:36:06;29.80;;;14.32;;
37431;SDS011;23292;51.300;6.252;2024-01-15T06:38:34;30.75;;;14.25;;
37431;SDS011;23292;51.300;6.252;2024-01-15T06:41:02;28.65;;;15.10;;
37431;SDS011;23292;51.300;6.252;2024-01-15T06:43:29;32.38;;;17.23;;
37431;SDS011;23292;51.300;6.252;2024-01-15T06:45:56;35.95;;;16.73;;
37431;SDS011;23292;51.300;6.252;2024-01-15T06:48:23;27.58;;;15.32;;
37431;SDS011;23292;51.300;6.252;2024-01-15T06:50:50;34.17;;;15.90;;
37431;SDS011;23292;51.300;6.252;2024-01-15T06:53:17;29.00;;;15.43;;
37431;SDS011;23292;51.300;6.252;2024-01-15T06:55:44;30.15;;;14.95;;
37431;SDS011;23292;51.300;6.252;2024-01-15T06:58:12;30.00;;;14.07;;
37431;SDS011;23292;51.300;6.252;2024-01-15T07:00:40;27.25;;;14.63;;
37431;SDS011;23292;51.300;6.252;2024-01-15T07:03:07;27.35;;;14.10;;
37431;SDS011;23292;51.300;6.252;2024-01-15T07:05:34;26.05;;;13.40;;
37431;SDS011;23292;51.300;6.252;2024-01-15T07:08:01;24.27;;;12.60;;
37431;SDS011;23292;51.300;6.252;2024-01-15T07:10:27;26.38;;;12.25;;
37431;SDS011;23292;51.300;6.252;2024-01-15T07:12:54;26.52;;;12.85;;
37431;SDS011;23292;51.300;6.252;2024-01-15T07:15:22;25.70;;;11.63;;
37431;SDS011;23292;51.300;6.252;2024-01-15T07:17:49;26.05;;;11.88;;
37431;SDS011;23292;51.300;6.252;2024-01-15T07:20:16;21.45;;;11.77;;
37431;SDS011;23292;51.300;6.252;2024-01-15T07:22:43;27.05;;;11.98;;
37431;SDS011;23292;51.300;6.252;2024-01-15T07:25:10;21.38;;;11.15;;
37431;SDS011;23292;51.300;6.252;2024-01-15T07:27:38;23.63;;;10.13;;
37431;SDS011;23292;51.300;6.252;2024-01-15T07:30:06;20.60;;;11.18;;
37431;SDS011;23292;51.300;6.252;2024-01-15T07:32:33;24.00;;;11.27;;
37431;SDS011;23292;51.300;6.252;2024-01-15T07:35:01;20.65;;;11.35;;
37431;SDS011;23292;51.300;6.252;2024-01-15T07:37:27;18.52;;;9.93;;
37431;SDS011;23292;51.300;6.252;2024-01-15T07:39:55;20.70;;;9.95;;
37431;SDS011;23292;51.300;6.252;2024-01-15T07:42:21;21.27;;;11.30;;
37431;SDS011;23292;51.300;6.252;2024-01-15T07:44:49;20.58;;;11.75;;
37431;SDS011;23292;51.300;6.252;2024-01-15T07:47:17;20.95;;;10.38;;
37431;SDS011;23292;51.300;6.252;2024-01-15T07:49:44;17.63;;;9.95;;
37431;SDS011;23292;51.300;6.252;2024-01-15T07:52:11;19.27;;;9.40;;
37431;SDS011;23292;51.300;6.252;2024-01-15T07:54:39;13.85;;;8.60;;
37431;SDS011;23292;51.300;6.252;2024-01-15T07:57:06;16.80;;;8.70;;
37431;SDS011;23292;51.300;6.252;2024-01-15T07:59:34;19.70;;;9.05;;
37431;SDS011;23292;51.300;6.252;2024-01-15T08:02:02;18.05;;;10.00;;
37431;SDS011;23292;51.300;6.252;2024-01-15T08:04:29;16.52;;;9.60;;
37431;SDS011;23292;51.300;6.252;2024-01-15T08:06:57;14.52;;;8.75;;
37431;SDS011;23292;51.300;6.252;2024-01-15T08:09:24;18.05;;;8.98;;
37431;SDS011;23292;51.300;6.252;2024-01-15T08:11:51;17.17;;;9.35;;
37431;SDS011;23292;51.300;6.252;2024-01-15T08:14:18;15.20;;;8.93;;
37431;SDS011;23292;51.300;6.252;2024-01-15T08:16:45;16.35;;;8.88;;
37431;SDS011;23292;51.300;6.252;2024-01-15T08:19:12;16.60;;;8.32;;
37431;SDS011;23292;51.300;6.252;2024-01-15T08:21:40;14.77;;;8.88;;
37431;SDS011;23292;51.300;6.252;2024-01-15T08:24:08;15.32;;;9.10;;
37431;SDS011;23292;51.300;6.252;2024-01-15T08:26:35;18.73;;;8.60;;
37431;SDS011;23292;51.300;6.252;2024-01-15T08:29:01;16.60;;;8.98;;
37431;SDS011;23292;51.300;6.252;2024-01-15T08:31:28;17.15;;;8.55;;
37431;SDS011;23292;51.300;6.252;2024-01-15T08:33:55;15.02;;;9.05;;
37431;SDS011;23292;51.300;6.252;2024-01-15T08:36:22;14.65;;;8.68;;
37431;SDS011;23292;51.300;6.252;2024-01-15T08:38:51;18.50;;;9.70;;
37431;SDS011;23292;51.300;6.252;2024-01-15T08:41:17;17.20;;;9.90;;
37431;SDS011;23292;51.300;6.252;2024-01-15T08:43:44;17.33;;;11.00;;
37431;SDS011;23292;51.300;6.252;2024-01-15T08:46:11;18.27;;;10.20;;
37431;SDS011;23292;51.300;6.252;2024-01-15T08:48:38;17.30;;;10.52;;
37431;SDS011;23292;51.300;6.252;2024-01-15T08:51:06;16.13;;;9.55;;
37431;SDS011;23292;51.300;6.252;2024-01-15T08:53:34;15.63;;;8.55;;
37431;SDS011;23292;51.300;6.252;2024-01-15T08:56:02;12.23;;;7.50;;
37431;SDS011;23292;51.300;6.252;2024-01-15T08:58:29;14.98;;;8.80;;
37431;SDS011;23292;51.300;6.252;2024-01-15T09:00:56;16.77;;;8.70;;
37431;SDS011;23292;51.300;6.252;2024-01-15T09:03:24;18.67;;;8.73;;
37431;SDS011;23292;51.300;6.252;2024-01-15T09:05:51;16.85;;;8.10;;
37431;SDS011;23292;51.300;6.252;2024-01-15T09:08:19;13.27;;;7.50;;
37431;SDS011;23292;51.300;6.252;2024-01-15T09:10:45;15.90;;;8.27;;
37431;SDS011;23292;51.300;6.252;2024-01-15T09:13:13;14.73;;;7.68;;
37431;SDS011;23292;51.300;6.252;2024-01-15T09:15:40;12.95;;;7.28;;
37431;SDS011;23292;51.300;6.252;2024-01-15T09:18:07;14.30;;;7.10;;
37431;SDS011;23292;51.300;6.252;2024-01-15T09:20:34;12.75;;;6.38;;
37431;SDS011;23292;51.300;6.252;2024-01-15T09:23:02;9.23;;;5.53;;
37431;SDS011;23292;51.300;6.252;2024-01-15T09:25:29;9.85;;;5.32;;
37431;SDS011;23292;51.300;6.252;2024-01-15T09:27:56;9.98;;;4.85;;
37431;SDS011;23292;51.300;6.252;2024-01-15T09:30:24;12.05;;;6.00;;
37431;SDS011;23292;51.300;6.252;2024-01-15T09:32:51;8.38;;;5.10;;
37431;SDS011;23292;51.300;6.252;2024-01-15T09:35:18;11.07;;;4.95;;
37431;SDS011;23292;51.300;6.252;2024-01-15T09:37:47;9.95;;;4.63;;
37431;SDS011;23292;51.300;6.252;2024-01-15T09:40:15;9.60;;;5.28;;
37431;SDS011;23292;51.300;6.252;2024-01-15T09:42:44;11.45;;;5.30;;
37431;SDS011;23292;51.300;6.252;2024-01-15T09:45:13;9.32;;;4.80;;
37431;SDS011;23292;51.300;6.252;2024-01-15T09:47:41;9.98;;;5.25;;
37431;SDS011;23292;51.300;6.252;2024-01-15T09:50:12;9.88;;;5.40;;
37431;SDS011;23292;51.300;6.252;2024-01-15T09:52:40;9.80;;;4.93;;
37431;SDS011;23292;51.300;6.252;2024-01-15T09:55:08;9.23;;;4.70;;
37431;SDS011;23292;51.300;6.252;2024-01-15T09:57:36;10.45;;;4.57;;
37431;SDS011;23292;51.300;6.252;2024-01-15T10:00:05;10.57;;;4.70;;
37431;SDS011;23292;51.300;6.252;2024-01-15T10:02:33;8.02;;;4.28;;
37431;SDS011;23292;51.300;6.252;2024-01-15T10:05:02;6.65;;;3.85;;
37431;SDS011;23292;51.300;6.252;2024-01-15T10:07:29;8.73;;;3.70;;
37431;SDS011;23292;51.300;6.252;2024-01-15T10:10:01;8.27;;;3.95;;
37431;SDS011;23292;51.300;6.252;2024-01-15T10:12:30;7.07;;;3.15;;
37431;SDS011;23292;51.300;6.252;2024-01-15T10:14:57;7.32;;;3.40;;
37431;SDS011;23292;51.300;6.252;2024-01-15T10:17:25;7.63;;;3.22;;
37431;SDS011;23292;51.300;6.252;2024-01-15T10:19:54;8.57;;;2.78;;
37431;SDS011;23292;51.300;6.252;2024-01-15T10:22:21;8.50;;;2.70;;
37431;SDS011;23292;51.300;6.252;2024-01-15T10:24:49;6.43;;;2.08;;
37431;SDS011;23292;51.300;6.252;2024-01-15T10:27:18;7.18;;;3.20;;
37431;SDS011;23292;51.300;6.252;2024-01-15T10:29:45;9.77;;;2.40;;
37431;SDS011;23292;51.300;6.252;2024-01-15T10:32:12;7.53;;;2.17;;
37431;SDS011;23292;51.300;6.252;2024-01-15T10:34:39;6.55;;;1.83;;
37431;SDS011;23292;51.300;6.252;2024-01-15T10:37:09;6.10;;;1.55;;
37431;SDS011;23292;51.300;6.252;2024-01-15T10:39:37;9.98;;;1.67;;
37431;SDS011;23292;51.300;6.252;2024-01-15T10:42:06;6.20;;;1.30;;
37431;SDS011;23292;51.300;6.252;2024-01-15T10:44:34;7.20;;;1.35;;
37431;SDS011;23292;51.300;6.252;2024-01-15T10:47:01;5.82;;;1.30;;
37431;SDS011;23292;51.300;6.252;2024-01-15T10:49:29;5.07;;;1.02;;
37431;SDS011;23292;51.300;6.252;2024-01-15T10:52:00;3.17;;;1.10;;
37431;SDS011;23292;51.300;6.252;2024-01-15T10:54:27;6.07;;;1.20;;
37431;SDS011;23292;51.300;6.252;2024-01-15T10:56:56;4.10;;;1.10;;
37431;SDS011;23292;51.300;6.252;2024-01-15T10:59:23;6.97;;;1.73;;
37431;SDS011;23292;51.300;6.252;2024-01-15T11:01:52;5.03;;;1.50;;
37431;SDS011;23292;51.300;6.252;2024-01-15T11:04:22;4.75;;;1.50;;
37431;SDS011;23292;51.300;6.252;2024-01-15T11:06:52;5.15;;;1.45;;
37431;SDS011;23292;51.300;6.252;2024-01-15T11:09:23;6.03;;;1.80;;
37431;SDS011;23292;51.300;6.252;2024-01-15T11:11:51;4.82;;;1.83;;
37431;SDS011;23292;51.300;6.252;2024-01-15T11:17:07;4.80;;;1.76;;
37431;SDS011;23292;51.300;6.252;2024-01-15T11:19:36;5.30;;;1.77;;
37431;SDS011;23292;51.300;6.252;2024-01-15T11:25:03;5.50;;;2.03;;
37431;SDS011;23292;51.300;6.252;2024-01-15T11:27:40;4.97;;;1.90;;
37431;SDS011;23292;51.300;6.252;2024-01-15T11:30:19;5.97;;;2.33;;
37431;SDS011;23292;51.300;6.252;2024-01-15T11:32:49;8.30;;;2.33;;
37431;SDS011;23292;51.300;6.252;2024-01-15T11:35:16;5.70;;;2.70;;
37431;SDS011;23292;51.300;6.252;2024-01-15T11:40:24;8.45;;;4.00;;
37431;SDS011;23292;51.300;6.252;2024-01-15T11:43:07;8.63;;;4.03;;
37431;SDS011;23292;51.300;6.252;2024-01-15T11:45:35;10.18;;;3.83;;
37431;SDS011;23292;51.300;6.252;2024-01-15T11:50:47;11.18;;;4.93;;
37431;SDS011;23292;51.300;6.252;2024-01-15T11:55:44;9.93;;;4.63;;
37431;SDS011;23292;51.300;6.252;2024-01-15T11:58:12;9.68;;;4.63;;
37431;SDS011;23292;51.300;6.252;2024-01-15T12:00:43;10.40;;;4.95;;
37431;SDS011;23292;51.300;6.252;2024-01-15T12:05:39;17.75;;;6.50;;
37431;SDS011;23292;51.300;6.252;2024-01-15T12:08:08;15.32;;;6.07;;
37431;SDS011;23292;51.300;6.252;2024-01-15T12:10:38;10.07;;;5.65;;
37431;SDS011;23292;51.300;6.252;2024-01-15T12:15:39;11.95;;;5.38;;
37431;SDS011;23292;51.300;6.252;2024-01-15T12:18:08;13.63;;;6.05;;
37431;SDS011;23292;51.300;6.252;2024-01-15T12:20:37;11.07;;;5.70;;
37431;SDS011;23292;51.300;6.252;2024-01-15T12:23:05;11.35;;;5.65;;
37431;SDS011;23292;51.300;6.252;2024-01-15T12:25:35;13.85;;;5.72;;
37431;SDS011;23292;51.300;6.252;2024-01-15T12:28:04;10.98;;;4.72;;
37431;SDS011;23292;51.300;6.252;2024-01-15T12:30:32;10.68;;;4.68;;
37431;SDS011;23292;51.300;6.252;2024-01-15T12:33:03;8.35;;;3.78;;
37431;SDS011;23292;51.300;6.252;2024-01-15T12:35:31;10.95;;;4.10;;
37431;SDS011;23292;51.300;6.252;2024-01-15T12:38:00;9.38;;;4.18;;
37431;SDS011;23292;51.300;6.252;2024-01-15T12:40:30;8.00;;;3.90;;
37431;SDS011;23292;51.300;6.252;2024-01-15T12:42:59;10.40;;;3.97;;
37431;SDS011;23292;51.300;6.252;2024-01-15T12:45:30;5.97;;;3.23;;
37431;SDS011;23292;51.300;6.252;2024-01-15T12:47:58;8.68;;;3.22;;
37431;SDS011;23292;51.300;6.252;2024-01-15T12:50:26;10.85;;;2.88;;
37431;SDS011;23292;51.300;6.252;2024-01-15T12:52:53;9.65;;;2.80;;
37431;SDS011;23292;51.300;6.252;2024-01-15T12:55:21;7.22;;;2.95;;
37431;SDS011;23292;51.300;6.252;2024-01-15T12:57:49;5.05;;;2.20;;
37431;SDS011;23292;51.300;6.252;2024-01-15T13:00:19;6.47;;;1.75;;
37431;SDS011;23292;51.300;6.252;2024-01-15T13:02:46;3.17;;;1.50;;
37431;SDS011;23292;51.300;6.252;2024-01-15T13:05:12;4.05;;;1.83;;
37431;SDS011;23292;51.300;6.252;2024-01-15T13:07:41;7.13;;;1.80;;
37431;SDS011;23292;51.300;6.252;2024-01-15T13:10:09;5.13;;;1.60;;
37431;SDS011;23292;51.300;6.252;2024-01-15T13:12:37;4.38;;;1.70;;
37431;SDS011;23292;51.300;6.252;2024-01-15T13:15:05;4.72;;;1.58;;
37431;SDS011;23292;51.300;6.252;2024-01-15T13:17:36;4.45;;;1.40;;
37431;SDS011;23292;51.300;6.252;2024-01-15T13:20:03;5.47;;;1.67;;
37431;SDS011;23292;51.300;6.252;2024-01-15T13:22:30;5.50;;;1.60;;
37431;SDS011;23292;51.300;6.252;2024-01-15T13:24:59;3.92;;;1.70;;
37431;SDS011;23292;51.300;6.252;2024-01-15T13:27:27;3.85;;;1.48;;
37431;SDS011;23292;51.300;6.252;2024-01-15T13:29:54;2.97;;;1.30;;
37431;SDS011;23292;51.300;6.252;2024-01-15T13:32:25;5.10;;;1.60;;
37431;SDS011;23292;51.300;6.252;2024-01-15T13:34:55;3.50;;;1.65;;
37431;SDS011;23292;51.300;6.252;2024-01-15T13:37:23;4.75;;;1.80;;
37431;SDS011;23292;51.300;6.252;2024-01-15T13:39:53;2.67;;;1.40;;
37431;SDS011;23292;51.300;6.252;2024-01-15T13:42:20;5.22;;;2.00;;
37431;SDS011;23292;51.300;6.252;2024-01-15T13:44:50;4.78;;;2.03;;
37431;SDS011;23292;51.300;6.252;2024-01-15T13:47:17;3.78;;;1.60;;
37431;SDS011;23292;51.300;6.252;2024-01-15T13:49:44;4.53;;;1.88;;
37431;SDS011;23292;51.300;6.252;2024-01-15T13:52:12;5.05;;;1.80;;
37431;SDS011;23292;51.300;6.252;2024-01-15T13:54:39;5.90;;;1.70;;
37431;SDS011;23292;51.300;6.252;2024-01-15T13:57:16;3.13;;;1.33;;
37431;SDS011;23292;51.300;6.252;2024-01-15T13:59:44;4.70;;;1.88;;
37431;SDS011;23292;51.300;6.252;2024-01-15T14:02:11;4.97;;;1.70;;
37431;SDS011;23292;51.300;6.252;2024-01-15T14:04:42;2.50;;;1.42;;
37431;SDS011;23292;51.300;6.252;2024-01-15T14:07:09;4.00;;;1.50;;
37431;SDS011;23292;51.300;6.252;2024-01-15T14:09:36;5.82;;;1.55;;
37431;SDS011;23292;51.300;6.252;2024-01-15T14:12:04;4.63;;;1.60;;
37431;SDS011;23292;51.300;6.252;2024-01-15T14:14:32;4.82;;;1.42;;
37431;SDS011;23292;51.300;6.252;2024-01-15T14:16:59;2.97;;;1.35;;
37431;SDS011;23292;51.300;6.252;2024-01-15T14:19:26;2.58;;;1.10;;
37431;SDS011;23292;51.300;6.252;2024-01-15T14:21:54;5.47;;;1.55;;
37431;SDS011;23292;51.300;6.252;2024-01-15T14:24:21;4.20;;;1.52;;
37431;SDS011;23292;51.300;6.252;2024-01-15T14:26:48;6.53;;;1.83;;
37431;SDS011;23292;51.300;6.252;2024-01-15T14:29:15;4.82;;;1.80;;
37431;SDS011;23292;51.300;6.252;2024-01-15T14:31:42;5.97;;;2.13;;
37431;SDS011;23292;51.300;6.252;2024-01-15T14:34:09;3.60;;;1.75;;
37431;SDS011;23292;51.300;6.252;2024-01-15T14:36:38;4.57;;;1.58;;
37431;SDS011;23292;51.300;6.252;2024-01-15T14:39:04;3.75;;;1.90;;
37431;SDS011;23292;51.300;6.252;2024-01-15T14:41:31;5.05;;;1.50;;
37431;SDS011;23292;51.300;6.252;2024-01-15T14:43:58;2.80;;;1.48;;
37431;SDS011;23292;51.300;6.252;2024-01-15T14:46:25;4.53;;;1.73;;
37431;SDS011;23292;51.300;6.252;2024-01-15T14:48:53;4.00;;;1.77;;
37431;SDS011;23292;51.300;6.252;2024-01-15T14:51:20;4.03;;;1.52;;
37431;SDS011;23292;51.300;6.252;2024-01-15T14:53:47;4.13;;;1.50;;